createdAt,value
2023-01-25T00:00:16.589Z,69.09
2023-01-25T00:01:16.578Z,68.92
2023-01-25T00:02:16.565Z,68.92
2023-01-25T00:03:16.553Z,69.09
2023-01-25T00:04:16.542Z,68.88
2023-01-25T00:05:16.529Z,68.78
2023-01-25T00:06:16.521Z,69.2
2023-01-25T00:07:16.514Z,69.02
2023-01-25T00:08:16.501Z,69.54
2023-01-25T00:09:16.489Z,69.74
2023-01-25T00:10:16.483Z,69.67
2023-01-25T00:11:16.468Z,71.12
2023-01-25T00:12:16.456Z,72.39
2023-01-25T00:13:16.449Z,73.94
2023-01-25T00:14:16.441Z,73.71
2023-01-25T00:15:16.451Z,73.67
2023-01-25T00:16:16.416Z,72.85
2023-01-25T00:17:16.409Z,72.85
2023-01-25T00:18:16.394Z,72.85
2023-01-25T00:19:16.387Z,72.98
2023-01-25T00:20:16.379Z,73.15
2023-01-25T00:21:16.374Z,72.81
2023-01-25T00:22:16.355Z,72.16
2023-01-25T00:23:16.345Z,71.53
2023-01-25T00:24:16.343Z,71.09
2023-01-25T00:25:16.328Z,70.47
2023-01-25T00:26:16.316Z,70.57
2023-01-25T00:27:16.313Z,70.47
2023-01-25T00:28:16.304Z,69.92
2023-01-25T00:29:16.286Z,70.03
2023-01-25T00:30:16.280Z,69.61
2023-01-25T00:31:16.264Z,69.51
2023-01-25T00:32:16.259Z,69.85
2023-01-25T00:33:16.279Z,69.78
2023-01-25T00:34:16.250Z,70.61
2023-01-25T00:35:16.263Z,71.22
2023-01-25T00:36:16.211Z,71.57
2023-01-25T00:37:16.215Z,71.43
2023-01-25T00:38:16.194Z,70.98
2023-01-25T00:39:16.195Z,71.09
2023-01-25T00:40:16.189Z,70.88
2023-01-25T00:41:16.170Z,70.81
2023-01-25T00:42:16.153Z,71.39
2023-01-25T00:43:16.149Z,72.85
2023-01-25T00:44:16.151Z,72.74
2023-01-25T00:45:16.126Z,72.98
2023-01-25T00:46:16.131Z,73.91
2023-01-25T00:47:16.101Z,73.57
2023-01-25T00:48:16.111Z,72.74
2023-01-25T00:49:16.080Z,73.43
2023-01-25T00:50:16.080Z,72.29
2023-01-25T00:51:16.070Z,72.81
2023-01-25T00:52:16.082Z,72.91
2023-01-25T00:53:16.044Z,72.36
2023-01-25T00:54:16.043Z,72.02
2023-01-25T00:55:16.019Z,71.4
2023-01-25T00:56:16.012Z,71.37
2023-01-25T00:57:16.008Z,70.67
2023-01-25T00:58:15.996Z,71.53
2023-01-25T00:59:16.000Z,72.47
2023-01-25T01:00:15.972Z,72.94
2023-01-25T01:01:15.960Z,73.05
2023-01-25T01:02:15.949Z,73.57
2023-01-25T01:03:15.943Z,72.64
2023-01-25T01:04:15.931Z,73.15
2023-01-25T01:05:15.927Z,73.05
2023-01-25T01:06:15.912Z,73.15
2023-01-25T01:07:15.898Z,73.57
2023-01-25T01:08:15.890Z,73.36
2023-01-25T01:09:15.883Z,73.12
2023-01-25T01:10:15.875Z,72.6
2023-01-25T01:11:15.861Z,72.81
2023-01-25T01:12:15.850Z,72.6
2023-01-25T01:13:15.840Z,72.64
2023-01-25T01:14:15.826Z,73.25
2023-01-25T01:15:15.822Z,73.57
2023-01-25T01:16:15.806Z,74.12
2023-01-25T01:17:15.806Z,74.02
2023-01-25T01:18:15.796Z,74.4
2023-01-25T01:19:15.776Z,73.67
2023-01-25T01:20:15.766Z,74.08
2023-01-25T01:21:15.763Z,73.98
2023-01-25T01:22:15.744Z,74.22
2023-01-25T01:23:15.740Z,75.29
2023-01-25T01:24:15.734Z,75.6
2023-01-25T01:25:15.727Z,75.36
2023-01-25T01:26:15.708Z,74.95
2023-01-25T01:27:15.728Z,74.81
2023-01-25T01:28:15.695Z,74.5
2023-01-25T01:29:15.678Z,74.15
2023-01-25T01:30:15.667Z,73.64
2023-01-25T01:31:15.654Z,74.08
2023-01-25T01:32:15.649Z,73.98
2023-01-25T01:33:15.645Z,74.77
2023-01-25T01:34:15.626Z,74.26
2023-01-25T01:35:15.620Z,73.94
2023-01-25T01:36:15.605Z,73.74
2023-01-25T01:37:15.595Z,73.88
2023-01-25T01:38:15.584Z,73.98
2023-01-25T01:39:15.575Z,74.26
2023-01-25T01:40:15.587Z,74.26
2023-01-25T01:41:15.562Z,73.98
2023-01-25T01:42:15.543Z,74.15
2023-01-25T01:43:15.534Z,73.74
2023-01-25T01:44:15.527Z,74.05
2023-01-25T01:45:15.515Z,73.81
2023-01-25T01:46:15.534Z,73.29
2023-01-25T01:47:15.495Z,73.19
2023-01-25T01:48:15.483Z,73.08
2023-01-25T01:49:15.475Z,72.78
2023-01-25T01:50:15.471Z,72.78
2023-01-25T01:51:15.460Z,73.43
2023-01-25T01:52:15.454Z,73.67
2023-01-25T01:53:15.434Z,73.94
2023-01-25T01:54:15.421Z,73.74
2023-01-25T01:55:15.410Z,74.05
2023-01-25T01:56:15.402Z,73.71
2023-01-25T01:57:15.391Z,73.94
2023-01-25T01:58:15.383Z,74.33
2023-01-25T01:59:15.375Z,74.02
2023-01-25T02:00:15.363Z,74.05
2023-01-25T02:01:15.354Z,74.43
2023-01-25T02:02:15.344Z,74.02
2023-01-25T02:03:15.338Z,73.91
2023-01-25T02:04:15.318Z,73.67
2023-01-25T02:05:15.310Z,73.16
2023-01-25T02:06:15.313Z,73.26
2023-01-25T02:07:15.294Z,73.29
2023-01-25T02:08:15.279Z,73.39
2023-01-25T02:09:15.268Z,73.91
2023-01-25T02:10:15.257Z,73.6
2023-01-25T02:11:15.249Z,73.36
2023-01-25T02:12:15.242Z,73.16
2023-01-25T02:13:15.234Z,72.85
2023-01-25T02:14:15.219Z,72.64
2023-01-25T02:15:15.209Z,72.74
2023-01-25T02:16:15.197Z,72.53
2023-01-25T02:17:15.192Z,72.33
2023-01-25T02:18:15.179Z,72.98
2023-01-25T02:19:15.178Z,73.74
2023-01-25T02:20:15.160Z,73.94
2023-01-25T02:21:15.150Z,73.84
2023-01-25T02:22:15.142Z,73.91
2023-01-25T02:23:15.129Z,73.91
2023-01-25T02:24:15.128Z,73.64
2023-01-25T02:25:15.111Z,74.5
2023-01-25T02:26:15.118Z,75.12
2023-01-25T02:27:15.091Z,75.53
2023-01-25T02:28:15.112Z,74.98
2023-01-25T02:29:15.071Z,74.91
2023-01-25T02:30:15.063Z,75.26
2023-01-25T02:31:15.048Z,75.98
2023-01-25T02:32:15.038Z,76.91
2023-01-25T02:33:15.027Z,76.91
2023-01-25T02:34:15.022Z,76.26
2023-01-25T02:35:15.004Z,75.91
2023-01-25T02:36:14.994Z,75.6
2023-01-25T02:37:14.987Z,75.5
2023-01-25T02:38:14.973Z,75.05
2023-01-25T02:39:14.962Z,74.98
2023-01-25T02:40:14.971Z,75.29
2023-01-25T02:41:14.943Z,75.19
2023-01-25T02:42:14.940Z,75.15
2023-01-25T02:43:14.927Z,74.84
2023-01-25T02:44:14.912Z,74.84
2023-01-25T02:45:14.902Z,74.95
2023-01-25T02:46:14.907Z,74.84
2023-01-25T02:47:14.887Z,74.43
2023-01-25T02:48:14.874Z,75.29
2023-01-25T02:49:14.866Z,75.63
2023-01-25T02:50:14.854Z,76.36
2023-01-25T02:51:14.844Z,76.57
2023-01-25T02:52:14.841Z,76.98
2023-01-25T02:53:14.836Z,76.78
2023-01-25T02:54:14.812Z,76.05
2023-01-25T02:55:14.803Z,76.05
2023-01-25T02:56:14.793Z,76.36
2023-01-25T02:57:14.781Z,76.32
2023-01-25T02:58:14.774Z,75.91
2023-01-25T02:59:14.775Z,75.81
2023-01-25T03:00:14.751Z,76.57
2023-01-25T03:01:14.744Z,76.67
2023-01-25T03:02:14.732Z,76.57
2023-01-25T03:03:14.722Z,76.74
2023-01-25T03:04:14.713Z,76.74
2023-01-25T03:05:14.705Z,76.12
2023-01-25T03:06:14.699Z,76.22
2023-01-25T03:07:14.676Z,75.81
2023-01-25T03:08:14.675Z,75.91
2023-01-25T03:09:14.664Z,75.7
2023-01-25T03:10:14.650Z,75.81
2023-01-25T03:11:14.639Z,75.6
2023-01-25T03:12:14.632Z,76.22
2023-01-25T03:13:14.626Z,76.09
2023-01-25T03:14:14.609Z,75.46
2023-01-25T03:15:14.602Z,75.95
2023-01-25T03:16:14.589Z,77.22
2023-01-25T03:17:14.580Z,77.84
2023-01-25T03:18:14.575Z,78.05
2023-01-25T03:19:14.559Z,78.05
2023-01-25T03:20:14.556Z,78.26
2023-01-25T03:21:14.539Z,77.84
2023-01-25T03:22:14.530Z,78.05
2023-01-25T03:23:14.520Z,77.95
2023-01-25T03:24:14.513Z,77.84
2023-01-25T03:25:14.507Z,78.05
2023-01-25T03:26:14.492Z,78.26
2023-01-25T03:27:14.480Z,78.16
2023-01-25T03:28:14.472Z,78.64
2023-01-25T03:29:14.457Z,79.58
2023-01-25T03:30:14.450Z,80.05
2023-01-25T03:31:14.437Z,79.6
2023-01-25T03:32:14.434Z,78.95
2023-01-25T03:33:14.422Z,77.6
2023-01-25T03:34:14.408Z,77.53
2023-01-25T03:35:14.401Z,77.88
2023-01-25T03:36:14.388Z,78.61
2023-01-25T03:37:14.377Z,78.81
2023-01-25T03:38:14.379Z,79.58
2023-01-25T03:39:14.356Z,79.54
2023-01-25T03:40:14.347Z,79.33
2023-01-25T03:41:14.338Z,79.37
2023-01-25T03:42:14.329Z,80.13
2023-01-25T03:43:14.316Z,80.61
2023-01-25T03:44:14.311Z,79.47
2023-01-25T03:45:14.302Z,79.88
2023-01-25T03:46:14.286Z,80.02
2023-01-25T03:47:14.277Z,80.61
2023-01-25T03:48:14.272Z,79.99
2023-01-25T03:49:14.259Z,80.23
2023-01-25T03:50:14.246Z,80.75
2023-01-25T03:51:14.267Z,81.13
2023-01-25T03:52:14.237Z,80.3
2023-01-25T03:53:14.212Z,79.92
2023-01-25T03:54:14.210Z,80.89
2023-01-25T03:55:14.195Z,81.37
2023-01-25T03:56:14.190Z,81.02
2023-01-25T03:57:14.178Z,80.99
2023-01-25T03:58:14.164Z,80.12
2023-01-25T03:59:14.158Z,78.67
2023-01-25T04:00:14.141Z,78.99
2023-01-25T04:01:14.134Z,80.54
2023-01-25T04:02:14.123Z,81.16
2023-01-25T04:03:14.124Z,80.96
2023-01-25T04:04:14.101Z,80.65
2023-01-25T04:05:14.096Z,81.75
2023-01-25T04:06:14.087Z,80.85
2023-01-25T04:07:14.071Z,80.4
2023-01-25T04:08:14.062Z,79.36
2023-01-25T04:09:14.054Z,78.6
2023-01-25T04:10:14.042Z,77.6
2023-01-25T04:11:14.031Z,77.47
2023-01-25T04:12:14.027Z,77.36
2023-01-25T04:13:14.012Z,76.95
2023-01-25T04:14:14.001Z,77.36
2023-01-25T04:15:14.000Z,77.22
2023-01-25T04:16:13.977Z,76.81
2023-01-25T04:17:13.968Z,76.15
2023-01-25T04:18:13.970Z,75.78
2023-01-25T04:19:13.949Z,76.29
2023-01-25T04:20:13.937Z,76.09
2023-01-25T04:21:13.927Z,76.5
2023-01-25T04:22:13.922Z,75.91
2023-01-25T04:23:13.916Z,76.43
2023-01-25T04:24:13.922Z,76.91
2023-01-25T04:25:13.889Z,76.6
2023-01-25T04:26:13.918Z,75.7
2023-01-25T04:27:13.873Z,76.88
2023-01-25T04:28:13.862Z,78.05
2023-01-25T04:29:13.870Z,78.16
2023-01-25T04:30:13.837Z,78.36
2023-01-25T04:31:13.827Z,78.61
2023-01-25T04:32:13.825Z,78.92
2023-01-25T04:33:13.810Z,79.19
2023-01-25T04:34:13.792Z,78.85
2023-01-25T04:35:13.784Z,78.05
2023-01-25T04:36:13.802Z,78.4
2023-01-25T04:37:13.766Z,78.61
2023-01-25T04:38:13.755Z,78.36
2023-01-25T04:39:13.745Z,78.3
2023-01-25T04:40:13.736Z,78.75
2023-01-25T04:41:13.725Z,79.37
2023-01-25T04:42:13.715Z,79.78
2023-01-25T04:43:13.708Z,79.68
2023-01-25T04:44:13.726Z,80.3
2023-01-25T04:45:13.702Z,80.47
2023-01-25T04:46:13.702Z,79.91
2023-01-25T04:47:13.677Z,79.6
2023-01-25T04:48:13.650Z,78.99
2023-01-25T04:49:13.650Z,79.19
2023-01-25T04:50:13.627Z,79.5
2023-01-25T04:51:13.627Z,78.81
2023-01-25T04:52:13.611Z,79.27
2023-01-25T04:53:13.599Z,80.13
2023-01-25T04:54:13.587Z,80.54
2023-01-25T04:55:13.586Z,81.06
2023-01-25T04:56:13.567Z,81.06
2023-01-25T04:57:13.561Z,81.06
2023-01-25T04:58:13.547Z,80.75
2023-01-25T04:59:13.540Z,81.68
2023-01-25T05:00:13.528Z,81.65
2023-01-25T05:01:13.515Z,80.99
2023-01-25T05:02:13.511Z,80.12
2023-01-25T05:03:13.510Z,79.09
2023-01-25T05:04:13.485Z,79.4
2023-01-25T05:05:13.475Z,79.3
2023-01-25T05:06:13.477Z,79.23
2023-01-25T05:07:13.460Z,79.95
2023-01-25T05:08:13.450Z,79.95
2023-01-25T05:09:13.458Z,80.12
2023-01-25T05:10:13.435Z,79.36
2023-01-25T05:11:13.415Z,78.5
2023-01-25T05:12:13.400Z,77.81
2023-01-25T05:13:13.399Z,78.12
2023-01-25T05:14:13.384Z,78.12
2023-01-25T05:15:13.399Z,77.95
2023-01-25T05:16:13.360Z,78.47
2023-01-25T05:17:13.355Z,78.47
2023-01-25T05:18:13.344Z,78.4
2023-01-25T05:19:13.327Z,79.33
2023-01-25T05:20:13.325Z,79.4
2023-01-25T05:21:13.308Z,79.19
2023-01-25T05:22:13.301Z,78.5
2023-01-25T05:23:13.314Z,79.44
2023-01-25T05:24:13.282Z,79.19
2023-01-25T05:25:13.298Z,78.78
2023-01-25T05:26:13.252Z,78.78
2023-01-25T05:27:13.248Z,78.26
2023-01-25T05:28:13.242Z,78.57
2023-01-25T05:29:13.228Z,79.23
2023-01-25T05:30:13.218Z,80.05
2023-01-25T05:31:13.249Z,79.37
2023-01-25T05:32:13.203Z,79.92
2023-01-25T05:33:13.194Z,80.19
2023-01-25T05:34:13.178Z,80.51
2023-01-25T05:35:13.177Z,79.99
2023-01-25T05:36:13.151Z,80.02
2023-01-25T05:37:13.146Z,80.13
2023-01-25T05:38:13.141Z,80.54
2023-01-25T05:39:13.127Z,81.13
2023-01-25T05:40:13.139Z,79.88
2023-01-25T05:41:13.106Z,80.16
2023-01-25T05:42:13.092Z,79.44
2023-01-25T05:43:13.198Z,79.68
2023-01-25T05:44:13.082Z,79.78
2023-01-25T05:45:13.074Z,79.6
2023-01-25T05:46:13.058Z,78.88
2023-01-25T05:47:13.059Z,78.19
2023-01-25T05:48:13.045Z,78.44
2023-01-25T05:49:13.029Z,79.2
2023-01-25T05:50:13.020Z,79.61
2023-01-25T05:51:13.006Z,80.13
2023-01-25T05:52:12.990Z,79.51
2023-01-25T05:53:12.983Z,79.75
2023-01-25T05:54:12.969Z,80.47
2023-01-25T05:55:12.962Z,81.1
2023-01-25T05:56:12.964Z,81.24
2023-01-25T05:57:12.942Z,81.24
2023-01-25T05:58:12.924Z,81.62
2023-01-25T05:59:12.919Z,81.68
2023-01-25T06:00:12.912Z,80.61
2023-01-25T06:01:12.900Z,79.95
2023-01-25T06:02:12.897Z,79.19
2023-01-25T06:03:12.874Z,77.95
2023-01-25T06:04:12.900Z,77.95
2023-01-25T06:05:12.854Z,77.98
2023-01-25T06:06:12.843Z,78.4
2023-01-25T06:07:12.838Z,78.61
2023-01-25T06:08:12.821Z,78.54
2023-01-25T06:09:12.845Z,79.41
2023-01-25T06:10:12.814Z,79.88
2023-01-25T06:11:12.790Z,80.3
2023-01-25T06:12:12.805Z,79.58
2023-01-25T06:13:12.772Z,79.64
2023-01-25T06:14:12.758Z,79.4
2023-01-25T06:15:12.771Z,78.57
2023-01-25T06:16:12.738Z,77.95
2023-01-25T06:17:12.733Z,77.53
2023-01-25T06:18:12.734Z,78.3
2023-01-25T06:19:12.712Z,78.81
2023-01-25T06:20:12.703Z,79.23
2023-01-25T06:21:12.688Z,78.81
2023-01-25T06:22:12.677Z,79.27
2023-01-25T06:23:12.694Z,80.23
2023-01-25T06:24:12.666Z,80.82
2023-01-25T06:25:12.666Z,81.23
2023-01-25T06:26:12.637Z,80.47
2023-01-25T06:27:12.625Z,80.16
2023-01-25T06:28:12.631Z,80.47
2023-01-25T06:29:12.608Z,79.85
2023-01-25T06:30:12.599Z,80.26
2023-01-25T06:31:12.619Z,80.05
2023-01-25T06:32:12.578Z,79.95
2023-01-25T06:33:12.567Z,79.4
2023-01-25T06:34:12.567Z,79.09
2023-01-25T06:35:12.605Z,78.99
2023-01-25T06:36:12.584Z,78.57
2023-01-25T06:37:12.523Z,78.99
2023-01-25T06:38:12.530Z,78.88
2023-01-25T06:39:12.505Z,78.67
2023-01-25T06:40:12.502Z,78.47
2023-01-25T06:41:12.493Z,77.88
2023-01-25T06:42:12.473Z,78.85
2023-01-25T06:43:12.472Z,78.89
2023-01-25T06:44:12.466Z,79.82
2023-01-25T06:45:12.463Z,80.13
2023-01-25T06:46:12.437Z,80.33
2023-01-25T06:47:12.420Z,80.09
2023-01-25T06:48:12.416Z,79.82
2023-01-25T06:49:12.402Z,80.44
2023-01-25T06:50:12.387Z,80.75
2023-01-25T06:51:12.399Z,80.71
2023-01-25T06:52:12.377Z,80.4
2023-01-25T06:53:12.356Z,79.85
2023-01-25T06:54:12.371Z,79.23
2023-01-25T06:55:12.396Z,78.81
2023-01-25T06:56:12.326Z,78.64
2023-01-25T06:57:12.433Z,78.75
2023-01-25T06:58:12.310Z,78.78
2023-01-25T06:59:12.326Z,79.1
2023-01-25T07:00:12.287Z,79.55
2023-01-25T07:01:12.279Z,79.75
2023-01-25T07:02:12.275Z,80.16
2023-01-25T07:03:12.253Z,80.13
2023-01-25T07:04:12.260Z,80.13
2023-01-25T07:05:12.241Z,80.02
2023-01-25T07:06:12.229Z,80.02
2023-01-25T07:07:12.211Z,80.23
2023-01-25T07:08:12.203Z,79.96
2023-01-25T07:09:12.193Z,80.33
2023-01-25T07:10:12.187Z,80.33
2023-01-25T07:11:12.189Z,80.06
2023-01-25T07:12:12.161Z,80.27
2023-01-25T07:13:12.245Z,80.47
2023-01-25T07:14:12.152Z,80.68
2023-01-25T07:15:12.154Z,80.52
2023-01-25T07:16:12.121Z,80.73
2023-01-25T07:17:12.128Z,80.83
2023-01-25T07:18:12.107Z,80.79
2023-01-25T07:19:12.094Z,80.58
2023-01-25T07:20:12.097Z,80.41
2023-01-25T07:21:12.105Z,80.73
2023-01-25T07:22:12.072Z,80.83
2023-01-25T07:23:12.051Z,80.73
2023-01-25T07:24:12.045Z,80.93
2023-01-25T07:25:12.031Z,80.93
2023-01-25T07:26:12.039Z,80.99
2023-01-25T07:27:12.034Z,80.37
2023-01-25T07:28:12.016Z,80.83
2023-01-25T07:29:12.004Z,81.2
2023-01-25T07:30:11.983Z,80.65
2023-01-25T07:31:11.971Z,79.82
2023-01-25T07:32:11.955Z,79.69
2023-01-25T07:33:11.978Z,80.73
2023-01-25T07:34:11.943Z,80.89
2023-01-25T07:35:11.939Z,80.19
2023-01-25T07:36:12.012Z,79.68
2023-01-25T07:37:11.950Z,78.96
2023-01-25T07:38:11.896Z,78.12
2023-01-25T07:39:11.914Z,78.47
2023-01-25T07:40:11.872Z,79.03
2023-01-25T07:41:11.868Z,79.71
2023-01-25T07:42:11.870Z,79.16
2023-01-25T07:43:11.847Z,78.64
2023-01-25T07:44:11.832Z,78.58
2023-01-25T07:45:11.833Z,79.2
2023-01-25T07:46:11.819Z,79.3
2023-01-25T07:47:11.881Z,79.51
2023-01-25T07:48:11.834Z,79.55
2023-01-25T07:49:12.020Z,79.41
2023-01-25T07:50:11.766Z,79.2
2023-01-25T07:51:11.756Z,79.2
2023-01-25T07:52:11.770Z,79.13
2023-01-25T07:53:11.740Z,79.55
2023-01-25T07:54:11.738Z,80.16
2023-01-25T07:55:11.711Z,79.96
2023-01-25T07:56:11.704Z,79.82
2023-01-25T07:57:11.697Z,79.41
2023-01-25T07:58:11.681Z,79.13
2023-01-25T07:59:11.677Z,79.85
2023-01-25T08:00:11.662Z,79.65
2023-01-25T08:01:11.718Z,79.85
2023-01-25T08:02:11.644Z,79.34
2023-01-25T08:03:11.637Z,79.38
2023-01-25T08:04:11.637Z,79.58
2023-01-25T08:05:11.625Z,79.9
2023-01-25T08:06:11.596Z,79.9
2023-01-25T08:07:11.600Z,80.1
2023-01-25T08:08:11.583Z,79.96
2023-01-25T08:09:11.580Z,79.82
2023-01-25T08:10:11.557Z,79.51
2023-01-25T08:11:11.575Z,78.99
2023-01-25T08:12:11.534Z,78.78
2023-01-25T08:13:11.529Z,78.82
2023-01-25T08:14:11.524Z,79.13
2023-01-25T08:15:11.504Z,79.34
2023-01-25T08:16:11.497Z,79.55
2023-01-25T08:17:11.503Z,79.44
2023-01-25T08:18:11.505Z,79.51
2023-01-25T08:19:11.464Z,79.3
2023-01-25T08:20:11.471Z,79.2
2023-01-25T08:21:11.445Z,79.2
2023-01-25T08:22:11.431Z,79.1
2023-01-25T08:23:11.426Z,79.06
2023-01-25T08:24:11.423Z,78.85
2023-01-25T08:25:11.404Z,78.61
2023-01-25T08:26:11.410Z,78.16
2023-01-25T08:27:11.390Z,77.95
2023-01-25T08:28:11.377Z,77.5
2023-01-25T08:29:11.364Z,77.09
2023-01-25T08:30:11.357Z,76.5
2023-01-25T08:31:11.341Z,76.71
2023-01-25T08:32:11.339Z,76.71
2023-01-25T08:33:11.325Z,76.5
2023-01-25T08:34:11.309Z,76.71
2023-01-25T08:35:11.300Z,76.81
2023-01-25T08:36:11.290Z,76.23
2023-01-25T08:37:11.276Z,77.75
2023-01-25T08:38:11.271Z,78.92
2023-01-25T08:39:11.258Z,79.44
2023-01-25T08:40:11.249Z,80.16
2023-01-25T08:41:11.239Z,80.37
2023-01-25T08:42:11.235Z,80.99
2023-01-25T08:43:11.217Z,80.85
2023-01-25T08:44:11.213Z,80.09
2023-01-25T08:45:11.206Z,78.96
2023-01-25T08:46:11.199Z,79.1
2023-01-25T08:47:11.186Z,79.82
2023-01-25T08:48:11.164Z,79.71
2023-01-25T08:49:11.155Z,79.99
2023-01-25T08:50:11.144Z,79.37
2023-01-25T08:51:11.135Z,78.92
2023-01-25T08:52:11.146Z,78.23
2023-01-25T08:53:11.120Z,78.33
2023-01-25T08:54:11.106Z,78.23
2023-01-25T08:55:11.097Z,78.75
2023-01-25T08:56:11.083Z,78.64
2023-01-25T08:57:11.071Z,78.78
2023-01-25T08:58:11.058Z,79.34
2023-01-25T08:59:11.091Z,79.85
2023-01-25T09:00:11.043Z,80.06
2023-01-25T09:01:11.043Z,79.96
2023-01-25T09:02:11.023Z,80.27
2023-01-25T09:03:11.007Z,80.16
2023-01-25T09:04:10.999Z,80.58
2023-01-25T09:05:10.986Z,80.68
2023-01-25T09:06:10.979Z,80.58
2023-01-25T09:07:10.968Z,80.37
2023-01-25T09:08:10.957Z,80.62
2023-01-25T09:09:10.965Z,80.41
2023-01-25T09:10:10.946Z,80.55
2023-01-25T09:11:10.934Z,80.73
2023-01-25T09:12:10.916Z,80.83
2023-01-25T09:13:10.915Z,80.52
2023-01-25T09:14:10.898Z,80.79
2023-01-25T09:15:10.905Z,80.58
2023-01-25T09:16:10.900Z,80.06
2023-01-25T09:17:10.880Z,80.37
2023-01-25T09:18:10.852Z,80.27
2023-01-25T09:19:10.859Z,79.85
2023-01-25T09:20:10.835Z,80.14
2023-01-25T09:21:10.830Z,80.66
2023-01-25T09:22:10.814Z,81.38
2023-01-25T09:23:10.804Z,81.52
2023-01-25T09:24:10.802Z,81.84
2023-01-25T09:25:11.814Z,82.01
2023-01-25T09:26:10.773Z,81.84
2023-01-25T09:27:10.769Z,82.32
2023-01-25T09:28:10.759Z,81.9
2023-01-25T09:29:10.748Z,81.56
2023-01-25T09:30:10.741Z,80.76
2023-01-25T09:31:10.749Z,80.97
2023-01-25T09:32:10.754Z,81.76
2023-01-25T09:33:10.699Z,81.3
2023-01-25T09:34:10.686Z,80.47
2023-01-25T09:35:10.677Z,80.21
2023-01-25T09:36:10.684Z,80.68
2023-01-25T09:37:10.656Z,80.37
2023-01-25T09:38:10.650Z,80.54
2023-01-25T09:39:10.659Z,79.88
2023-01-25T09:40:10.678Z,79.64
2023-01-25T09:41:10.620Z,78.54
2023-01-25T09:42:10.604Z,78.75
2023-01-25T09:43:10.594Z,78.47
2023-01-25T09:44:10.585Z,78.89
2023-01-25T09:45:10.583Z,79.34
2023-01-25T09:46:10.567Z,80.06
2023-01-25T09:47:10.560Z,80.68
2023-01-25T09:48:10.553Z,80.47
2023-01-25T09:49:10.538Z,80.37
2023-01-25T09:50:10.538Z,80.47
2023-01-25T09:51:10.513Z,80.73
2023-01-25T09:52:10.518Z,81.14
2023-01-25T09:53:10.492Z,80.52
2023-01-25T09:54:10.482Z,81.24
2023-01-25T09:55:10.511Z,81.76
2023-01-25T09:56:10.461Z,81.66
2023-01-25T09:57:10.479Z,81.97
2023-01-25T09:58:10.469Z,81.82
2023-01-25T09:59:10.431Z,81.14
2023-01-25T10:00:10.434Z,81.66
2023-01-25T10:01:10.409Z,81.82
2023-01-25T10:02:10.407Z,80.89
2023-01-25T10:03:10.387Z,80.73
2023-01-25T10:04:10.381Z,81.56
2023-01-25T10:05:10.367Z,81.38
2023-01-25T10:06:10.355Z,81.45
2023-01-25T10:07:10.352Z,80.93
2023-01-25T10:08:10.346Z,80.62
2023-01-25T10:09:10.328Z,80.79
2023-01-25T10:10:10.321Z,80.41
2023-01-25T10:11:10.308Z,80.62
2023-01-25T10:12:10.301Z,80.76
2023-01-25T10:13:10.287Z,80.87
2023-01-25T10:14:10.284Z,81.49
2023-01-25T10:15:10.271Z,82.01
2023-01-25T10:16:10.259Z,81.66
2023-01-25T10:17:10.243Z,81.1
2023-01-25T10:18:10.233Z,81.2
2023-01-25T10:19:10.222Z,80.62
2023-01-25T10:20:10.219Z,80.55
2023-01-25T10:21:10.204Z,80.35
2023-01-25T10:22:10.214Z,81.45
2023-01-25T10:23:10.180Z,81.37
2023-01-25T10:24:10.173Z,79.85
2023-01-25T10:25:10.160Z,80
2023-01-25T10:26:10.153Z,80.52
2023-01-25T10:27:10.142Z,0
2023-01-25T10:28:10.135Z,0
2023-01-25T10:29:10.119Z,79.65
2023-01-25T10:30:10.112Z,79.69
2023-01-25T10:31:10.095Z,80.66
2023-01-25T10:32:10.099Z,80.55
2023-01-25T10:33:10.078Z,81.18
2023-01-25T10:34:10.070Z,81.93
2023-01-25T10:35:10.054Z,81.1
2023-01-25T10:36:10.048Z,80.27
2023-01-25T10:37:10.042Z,80.23
2023-01-25T10:38:10.031Z,80.06
2023-01-25T10:39:10.032Z,80.85
2023-01-25T10:40:10.002Z,80.33
2023-01-25T10:41:09.990Z,79.78
2023-01-25T10:42:09.985Z,79.2
2023-01-25T10:43:09.974Z,80.06
2023-01-25T10:44:10.002Z,80.52
2023-01-25T10:45:09.958Z,80.73
2023-01-25T10:46:09.950Z,81.24
2023-01-25T10:47:09.986Z,81.72
2023-01-25T10:48:09.919Z,81.1
2023-01-25T10:49:09.972Z,80.44
2023-01-25T10:50:09.907Z,79.75
2023-01-25T10:51:09.892Z,79.65
2023-01-25T10:52:09.879Z,79.82
2023-01-25T10:53:09.868Z,79.92
2023-01-25T10:54:10.050Z,79.68
2023-01-25T10:55:09.854Z,79.16
2023-01-25T10:56:09.839Z,78.78
2023-01-25T10:57:09.960Z,78.99
2023-01-25T10:58:09.823Z,79.1
2023-01-25T10:59:09.811Z,79.44
2023-01-25T11:00:09.842Z,79.85
2023-01-25T11:01:09.791Z,80.16
2023-01-25T11:02:09.779Z,80.27
2023-01-25T11:03:09.768Z,80
2023-01-25T11:04:09.870Z,80.97
2023-01-25T11:05:09.814Z,80.8
2023-01-25T11:06:09.814Z,81.35
2023-01-25T11:07:09.723Z,82.04
2023-01-25T11:08:09.723Z,82.35
2023-01-25T11:09:09.731Z,82.21
2023-01-25T11:10:09.718Z,82.49
2023-01-25T11:11:09.687Z,81.76
2023-01-25T11:12:09.673Z,81.24
2023-01-25T11:13:09.661Z,81.1
2023-01-25T11:14:09.659Z,79.85
2023-01-25T11:15:09.650Z,79.96
2023-01-25T11:16:09.639Z,80.21
2023-01-25T11:17:09.621Z,80.76
2023-01-25T11:18:09.617Z,81.59
2023-01-25T11:19:09.603Z,81.59
2023-01-25T11:20:09.589Z,81.59
2023-01-25T11:21:09.590Z,81.7
2023-01-25T11:22:09.570Z,82.01
2023-01-25T11:23:09.567Z,81.87
2023-01-25T11:24:09.601Z,81.62
2023-01-25T11:25:09.547Z,80.92
2023-01-25T11:26:09.532Z,79.99
2023-01-25T11:27:09.530Z,79.16
2023-01-25T11:28:09.578Z,78.54
2023-01-25T11:29:09.503Z,78.54
2023-01-25T11:30:09.498Z,78.61
2023-01-25T11:31:09.482Z,78.19
2023-01-25T11:32:09.463Z,77.67
2023-01-25T11:33:09.457Z,78.12
2023-01-25T11:34:09.462Z,78.23
2023-01-25T11:35:09.438Z,78.58
2023-01-25T11:36:09.425Z,79.1
2023-01-25T11:37:09.415Z,79.65
2023-01-25T11:38:09.402Z,80.33
2023-01-25T11:39:09.391Z,80.44
2023-01-25T11:40:09.383Z,79.92
2023-01-25T11:41:09.389Z,79.51
2023-01-25T11:42:09.364Z,79.85
2023-01-25T11:43:09.349Z,80.06
2023-01-25T11:44:09.341Z,80.23
2023-01-25T11:45:09.337Z,80.16
2023-01-25T11:46:09.321Z,80.47
2023-01-25T11:47:09.316Z,80.68
2023-01-25T11:48:09.306Z,80.58
2023-01-25T11:49:09.290Z,80.89
2023-01-25T11:50:09.284Z,80.79
2023-01-25T11:51:09.304Z,80.65
2023-01-25T11:52:09.260Z,80.37
2023-01-25T11:53:09.246Z,80.16
2023-01-25T11:54:09.240Z,80.27
2023-01-25T11:55:09.227Z,80.27
2023-01-25T11:56:09.226Z,80.44
2023-01-25T11:57:09.208Z,80.33
2023-01-25T11:58:09.199Z,80.23
2023-01-25T11:59:09.186Z,79.96
2023-01-25T12:00:09.174Z,80.37
2023-01-25T12:01:09.163Z,80.68
2023-01-25T12:02:09.154Z,80.79
2023-01-25T12:03:09.146Z,81.1
2023-01-25T12:04:09.160Z,81.1
2023-01-25T12:05:09.134Z,81.06
2023-01-25T12:06:09.114Z,80.54
2023-01-25T12:07:09.100Z,81.27
2023-01-25T12:08:09.094Z,80.92
2023-01-25T12:09:09.083Z,80.92
2023-01-25T12:10:09.100Z,80.61
2023-01-25T12:11:09.063Z,79.92
2023-01-25T12:12:09.065Z,80.47
2023-01-25T12:13:09.038Z,80.79
2023-01-25T12:14:09.031Z,81.3
2023-01-25T12:15:09.019Z,81.41
2023-01-25T12:16:09.038Z,81.62
2023-01-25T12:17:09.006Z,82.41
2023-01-25T12:18:08.993Z,81.79
2023-01-25T12:19:09.555Z,82.1
2023-01-25T12:20:08.976Z,81.37
2023-01-25T12:21:08.962Z,81.37
2023-01-25T12:22:08.946Z,80.93
2023-01-25T12:23:08.936Z,82.11
2023-01-25T12:24:08.940Z,82.84
2023-01-25T12:25:08.918Z,83.46
2023-01-25T12:26:08.906Z,83.87
2023-01-25T12:27:08.895Z,83.32
2023-01-25T12:28:08.885Z,82.76
2023-01-25T12:29:08.875Z,82.76
2023-01-25T12:30:08.878Z,82.03
2023-01-25T12:31:08.888Z,82.14
2023-01-25T12:32:08.851Z,81.73
2023-01-25T12:33:08.840Z,82.35
2023-01-25T12:34:08.883Z,82.73
2023-01-25T12:35:08.814Z,82.7
2023-01-25T12:36:08.804Z,81.72
2023-01-25T12:37:08.803Z,81.93
2023-01-25T12:38:08.784Z,81.37
2023-01-25T12:39:08.771Z,80.99
2023-01-25T12:40:08.761Z,80.79
2023-01-25T12:41:08.755Z,80.79
2023-01-25T12:42:08.750Z,80.37
2023-01-25T12:43:08.736Z,81.04
2023-01-25T12:44:08.724Z,81.35
2023-01-25T12:45:08.718Z,81.56
2023-01-25T12:46:08.708Z,82.07
2023-01-25T12:47:08.693Z,81.66
2023-01-25T12:48:08.677Z,82.01
2023-01-25T12:49:08.665Z,82.46
2023-01-25T12:50:08.665Z,83.04
2023-01-25T12:51:08.647Z,82.7
2023-01-25T12:52:08.634Z,82.45
2023-01-25T12:53:08.734Z,82.34
2023-01-25T12:54:08.620Z,81.79
2023-01-25T12:55:08.611Z,81.58